sensor_id;sensor_type;location;lat;lon;timestamp;pressure;altitude;pressure_sealevel;temperature;humidity
41102;BME280;26845;50.190;19.178;2023-02-12T00:00:45;99910.21;;;3.61;100.00
41102;BME280;26845;50.190;19.178;2023-02-12T00:03:11;99906.93;;;3.63;100.00
41102;BME280;26845;50.190;19.178;2023-02-12T00:05:39;99912.98;;;3.63;100.00
41102;BME280;26845;50.190;19.178;2023-02-12T00:08:07;99915.50;;;3.65;100.00
41102;BME280;26845;50.190;19.178;2023-02-12T00:10:39;99910.05;;;3.65;100.00
41102;BME280;26845;50.190;19.178;2023-02-12T00:13:05;99909.66;;;3.62;100.00
41102;BME280;26845;50.190;19.178;2023-02-12T00:15:31;99907.75;;;3.59;100.00
41102;BME280;26845;50.190;19.178;2023-02-12T00:17:58;99912.44;;;3.57;100.00
41102;BME280;26845;50.190;19.178;2023-02-12T00:20:25;99913.48;;;3.58;100.00
41102;BME280;26845;50.190;19.178;2023-02-12T00:22:50;99914.14;;;3.58;100.00
41102;BME280;26845;50.190;19.178;2023-02-12T00:25:17;99917.73;;;3.58;100.00
41102;BME280;26845;50.190;19.178;2023-02-12T00:27:45;99924.91;;;3.62;100.00
41102;BME280;26845;50.190;19.178;2023-02-12T00:30:12;99924.92;;;3.63;100.00
41102;BME280;26845;50.190;19.178;2023-02-12T00:32:38;99922.73;;;3.63;100.00
41102;BME280;26845;50.190;19.178;2023-02-12T00:35:05;99929.02;;;3.64;100.00
41102;BME280;26845;50.190;19.178;2023-02-12T00:37:31;99923.92;;;3.64;100.00
41102;BME280;26845;50.190;19.178;2023-02-12T00:39:57;99919.98;;;3.63;100.00
41102;BME280;26845;50.190;19.178;2023-02-12T00:42:24;99916.88;;;3.62;100.00
41102;BME280;26845;50.190;19.178;2023-02-12T00:44:49;99921.80;;;3.61;100.00
41102;BME280;26845;50.190;19.178;2023-02-12T00:47:16;99926.02;;;3.59;100.00
41102;BME280;26845;50.190;19.178;2023-02-12T00:49:42;99934.98;;;3.60;100.00
41102;BME280;26845;50.190;19.178;2023-02-12T00:52:08;99935.77;;;3.62;100.00
41102;BME280;26845;50.190;19.178;2023-02-12T00:54:34;99937.13;;;3.62;100.00
41102;BME280;26845;50.190;19.178;2023-02-12T00:57:00;99937.27;;;3.62;100.00
41102;BME280;26845;50.190;19.178;2023-02-12T00:59:26;99931.69;;;3.61;100.00
41102;BME280;26845;50.190;19.178;2023-02-12T01:01:53;99935.56;;;3.62;100.00
41102;BME280;26845;50.190;19.178;2023-02-12T01:04:19;99935.68;;;3.60;100.00
41102;BME280;26845;50.190;19.178;2023-02-12T01:06:46;99933.39;;;3.60;100.00
41102;BME280;26845;50.190;19.178;2023-02-12T01:09:13;99946.02;;;3.59;100.00
41102;BME280;26845;50.190;19.178;2023-02-12T01:11:39;99946.46;;;3.60;100.00
41102;BME280;26845;50.190;19.178;2023-02-12T01:14:06;99950.77;;;3.61;100.00
41102;BME280;26845;50.190;19.178;2023-02-12T01:16:32;99952.20;;;3.61;100.00
41102;BME280;26845;50.190;19.178;2023-02-12T01:19:00;99951.95;;;3.61;100.00
41102;BME280;26845;50.190;19.178;2023-02-12T01:21:28;99948.77;;;3.62;100.00
41102;BME280;26845;50.190;19.178;2023-02-12T01:23:56;99951.91;;;3.63;100.00
41102;BME280;26845;50.190;19.178;2023-02-12T01:26:22;99953.73;;;3.63;100.00
41102;BME280;26845;50.190;19.178;2023-02-12T01:28:53;99948.83;;;3.62;100.00
41102;BME280;26845;50.190;19.178;2023-02-12T01:31:22;99952.73;;;3.60;100.00
41102;BME280;26845;50.190;19.178;2023-02-12T01:33:52;99947.94;;;3.59;100.00
41102;BME280;26845;50.190;19.178;2023-02-12T01:36:19;99948.39;;;3.57;100.00
41102;BME280;26845;50.190;19.178;2023-02-12T01:38:46;99954.81;;;3.57;100.00
41102;BME280;26845;50.190;19.178;2023-02-12T01:41:21;99957.98;;;3.59;100.00
41102;BME280;26845;50.190;19.178;2023-02-12T01:44:10;99961.31;;;3.60;100.00
41102;BME280;26845;50.190;19.178;2023-02-12T01:46:37;99963.88;;;3.61;100.00
41102;BME280;26845;50.190;19.178;2023-02-12T01:49:06;99971.61;;;3.66;100.00
41102;BME280;26845;50.190;19.178;2023-02-12T01:51:33;99967.69;;;3.67;100.00
41102;BME280;26845;50.190;19.178;2023-02-12T01:54:04;99963.65;;;3.70;100.00
41102;BME280;26845;50.190;19.178;2023-02-12T01:56:31;99964.40;;;3.71;100.00
41102;BME280;26845;50.190;19.178;2023-02-12T01:58:58;99980.98;;;3.75;100.00
41102;BME280;26845;50.190;19.178;2023-02-12T02:01:26;99978.34;;;3.77;100.00
41102;BME280;26845;50.190;19.178;2023-02-12T02:03:57;99983.90;;;3.80;100.00
41102;BME280;26845;50.190;19.178;2023-02-12T02:06:28;99989.90;;;3.86;100.00
41102;BME280;26845;50.190;19.178;2023-02-12T02:08:57;99992.63;;;3.87;100.00
41102;BME280;26845;50.190;19.178;2023-02-12T02:11:23;99994.11;;;3.90;100.00
41102;BME280;26845;50.190;19.178;2023-02-12T02:14:07;100002.50;;;3.92;100.00
41102;BME280;26845;50.190;19.178;2023-02-12T02:17:03;100006.63;;;3.95;100.00
41102;BME280;26845;50.190;19.178;2023-02-12T02:22:23;100000.55;;;3.96;100.00
41102;BME280;26845;50.190;19.178;2023-02-12T02:25:35;100004.61;;;3.96;100.00
41102;BME280;26845;50.190;19.178;2023-02-12T02:34:46;100012.96;;;4.00;100.00
41102;BME280;26845;50.190;19.178;2023-02-12T02:37:06;100004.92;;;4.09;100.00
41102;BME280;26845;50.190;19.178;2023-02-12T02:39:49;100014.62;;;4.17;100.00
41102;BME280;26845;50.190;19.178;2023-02-12T02:42:32;100024.42;;;4.23;100.00
41102;BME280;26845;50.190;19.178;2023-02-12T02:45:05;100025.59;;;4.24;100.00
41102;BME280;26845;50.190;19.178;2023-02-12T02:47:46;100032.64;;;4.27;100.00
41102;BME280;26845;50.190;19.178;2023-02-12T02:50:16;100033.52;;;4.30;100.00
41102;BME280;26845;50.190;19.178;2023-02-12T02:53:06;100033.84;;;4.32;100.00
41102;BME280;26845;50.190;19.178;2023-02-12T02:55:38;100033.63;;;4.36;100.00
41102;BME280;26845;50.190;19.178;2023-02-12T02:58:15;100039.84;;;4.40;100.00
41102;BME280;26845;50.190;19.178;2023-02-12T03:00:47;100044.86;;;4.44;100.00
41102;BME280;26845;50.190;19.178;2023-02-12T03:03:27;100048.30;;;4.48;100.00
41102;BME280;26845;50.190;19.178;2023-02-12T03:05:59;100059.19;;;4.51;100.00
41102;BME280;26845;50.190;19.178;2023-02-12T03:08:33;100059.71;;;4.55;100.00
41102;BME280;26845;50.190;19.178;2023-02-12T03:11:29;100071.03;;;4.60;100.00
41102;BME280;26845;50.190;19.178;2023-02-12T03:14:03;100069.52;;;4.62;100.00
41102;BME280;26845;50.190;19.178;2023-02-12T03:16:43;100071.88;;;4.58;99.98
41102;BME280;26845;50.190;19.178;2023-02-12T03:19:16;100078.87;;;4.61;100.00
41102;BME280;26845;50.190;19.178;2023-02-12T03:27:28;100093.66;;;4.65;99.89
41102;BME280;26845;50.190;19.178;2023-02-12T03:29:55;100094.30;;;4.67;99.98
41102;BME280;26845;50.190;19.178;2023-02-12T03:32:35;100103.35;;;4.68;99.87
41102;BME280;26845;50.190;19.178;2023-02-12T03:35:54;100102.31;;;4.69;99.95
41102;BME280;26845;50.190;19.178;2023-02-12T03:38:33;100100.19;;;4.75;99.94
41102;BME280;26845;50.190;19.178;2023-02-12T03:44:25;100119.42;;;4.85;99.91
41102;BME280;26845;50.190;19.178;2023-02-12T03:52:43;100141.09;;;4.80;99.27
41102;BME280;26845;50.190;19.178;2023-02-12T03:55:10;100148.25;;;4.83;99.48
41102;BME280;26845;50.190;19.178;2023-02-12T03:57:51;100146.76;;;4.88;99.74
41102;BME280;26845;50.190;19.178;2023-02-12T04:00:21;100160.13;;;4.93;99.63
41102;BME280;26845;50.190;19.178;2023-02-12T04:02:48;100159.05;;;4.88;99.12
41102;BME280;26845;50.190;19.178;2023-02-12T04:05:24;100164.70;;;4.87;99.28
41102;BME280;26845;50.190;19.178;2023-02-12T04:07:51;100168.68;;;4.91;99.42
41102;BME280;26845;50.190;19.178;2023-02-12T04:10:23;100167.94;;;4.94;99.35
41102;BME280;26845;50.190;19.178;2023-02-12T04:12:58;100176.74;;;4.94;98.99
41102;BME280;26845;50.190;19.178;2023-02-12T04:16:01;100179.06;;;4.86;98.49
41102;BME280;26845;50.190;19.178;2023-02-12T04:18:40;100185.05;;;4.77;98.37
41102;BME280;26845;50.190;19.178;2023-02-12T04:24:31;100180.27;;;4.71;98.56
41102;BME280;26845;50.190;19.178;2023-02-12T04:27:31;100184.36;;;4.60;98.15
41102;BME280;26845;50.190;19.178;2023-02-12T04:30:06;100187.61;;;4.57;98.43
41102;BME280;26845;50.190;19.178;2023-02-12T04:32:49;100188.58;;;4.53;98.40
41102;BME280;26845;50.190;19.178;2023-02-12T04:38:39;100194.21;;;4.59;98.70
41102;BME280;26845;50.190;19.178;2023-02-12T04:41:07;100193.09;;;4.63;98.82
41102;BME280;26845;50.190;19.178;2023-02-12T04:43:35;100199.46;;;4.68;99.10
41102;BME280;26845;50.190;19.178;2023-02-12T04:46:02;100202.39;;;4.71;98.56
41102;BME280;26845;50.190;19.178;2023-02-12T04:48:29;100203.29;;;4.75;98.74
41102;BME280;26845;50.190;19.178;2023-02-12T04:50:55;100202.92;;;4.80;99.00
41102;BME280;26845;50.190;19.178;2023-02-12T04:53:21;100206.41;;;4.84;98.73
41102;BME280;26845;50.190;19.178;2023-02-12T04:55:47;100212.98;;;4.88;98.64
41102;BME280;26845;50.190;19.178;2023-02-12T04:58:16;100212.31;;;4.85;98.02
41102;BME280;26845;50.190;19.178;2023-02-12T05:00:42;100222.09;;;4.75;97.59
41102;BME280;26845;50.190;19.178;2023-02-12T05:03:08;100222.13;;;4.75;98.01
41102;BME280;26845;50.190;19.178;2023-02-12T05:05:34;100231.99;;;4.80;98.15
41102;BME280;26845;50.190;19.178;2023-02-12T05:08:00;100233.61;;;4.84;98.22
41102;BME280;26845;50.190;19.178;2023-02-12T05:10:26;100234.11;;;4.84;97.92
41102;BME280;26845;50.190;19.178;2023-02-12T05:12:53;100236.98;;;4.79;97.42
41102;BME280;26845;50.190;19.178;2023-02-12T05:15:19;100245.56;;;4.78;97.64
41102;BME280;26845;50.190;19.178;2023-02-12T05:17:45;100253.86;;;4.78;97.48
41102;BME280;26845;50.190;19.178;2023-02-12T05:20:12;100247.29;;;4.79;97.85
41102;BME280;26845;50.190;19.178;2023-02-12T05:22:38;100252.09;;;4.80;97.88
41102;BME280;26845;50.190;19.178;2023-02-12T05:25:04;100248.29;;;4.81;97.82
41102;BME280;26845;50.190;19.178;2023-02-12T05:27:31;100260.69;;;4.77;97.43
41102;BME280;26845;50.190;19.178;2023-02-12T05:29:57;100262.77;;;4.73;97.33
41102;BME280;26845;50.190;19.178;2023-02-12T05:32:23;100263.39;;;4.74;97.51
41102;BME280;26845;50.190;19.178;2023-02-12T05:34:49;100265.65;;;4.80;97.84
41102;BME280;26845;50.190;19.178;2023-02-12T05:37:15;100268.32;;;4.83;97.88
41102;BME280;26845;50.190;19.178;2023-02-12T05:39:41;100270.11;;;4.85;97.55
41102;BME280;26845;50.190;19.178;2023-02-12T05:42:07;100279.69;;;4.85;97.44
41102;BME280;26845;50.190;19.178;2023-02-12T05:44:33;100286.96;;;4.90;97.71
41102;BME280;26845;50.190;19.178;2023-02-12T05:46:59;100289.98;;;4.96;97.83
41102;BME280;26845;50.190;19.178;2023-02-12T05:49:26;100294.32;;;4.99;97.51
41102;BME280;26845;50.190;19.178;2023-02-12T05:51:52;100303.66;;;5.01;97.41
41102;BME280;26845;50.190;19.178;2023-02-12T05:54:18;100301.93;;;5.02;97.30
41102;BME280;26845;50.190;19.178;2023-02-12T05:56:46;100309.21;;;5.05;97.22
41102;BME280;26845;50.190;19.178;2023-02-12T05:59:18;100317.13;;;5.07;97.10
41102;BME280;26845;50.190;19.178;2023-02-12T06:01:46;100321.02;;;5.04;96.98
41102;BME280;26845;50.190;19.178;2023-02-12T06:04:15;100326.20;;;5.01;96.71
41102;BME280;26845;50.190;19.178;2023-02-12T06:06:41;100333.38;;;5.01;96.75
41102;BME280;26845;50.190;19.178;2023-02-12T06:09:09;100335.05;;;4.91;96.19
41102;BME280;26845;50.190;19.178;2023-02-12T06:11:36;100336.75;;;4.80;95.90
41102;BME280;26845;50.190;19.178;2023-02-12T06:14:07;100345.42;;;4.65;95.67
41102;BME280;26845;50.190;19.178;2023-02-12T06:16:34;100356.59;;;4.60;96.15
41102;BME280;26845;50.190;19.178;2023-02-12T06:19:02;100357.70;;;4.55;96.05
41102;BME280;26845;50.190;19.178;2023-02-12T06:21:28;100365.26;;;4.48;96.02
41102;BME280;26845;50.190;19.178;2023-02-12T06:23:55;100371.73;;;4.41;95.81
41102;BME280;26845;50.190;19.178;2023-02-12T06:26:22;100373.59;;;4.36;95.64
41102;BME280;26845;50.190;19.178;2023-02-12T06:28:49;100368.73;;;4.29;95.65
41102;BME280;26845;50.190;19.178;2023-02-12T06:31:30;100376.14;;;4.21;95.48
41102;BME280;26845;50.190;19.178;2023-02-12T06:33:57;100383.50;;;4.16;95.39
41102;BME280;26845;50.190;19.178;2023-02-12T06:36:25;100382.30;;;4.06;94.87
41102;BME280;26845;50.190;19.178;2023-02-12T06:38:51;100391.63;;;3.97;94.81
41102;BME280;26845;50.190;19.178;2023-02-12T06:41:17;100396.83;;;3.92;94.78
41102;BME280;26845;50.190;19.178;2023-02-12T06:43:43;100397.02;;;3.84;94.48
41102;BME280;26845;50.190;19.178;2023-02-12T06:46:10;100400.13;;;3.75;94.32
41102;BME280;26845;50.190;19.178;2023-02-12T06:48:36;100398.23;;;3.65;94.29
41102;BME280;26845;50.190;19.178;2023-02-12T06:51:14;100397.78;;;3.57;94.35
41102;BME280;26845;50.190;19.178;2023-02-12T06:53:41;100405.30;;;3.57;94.61
41102;BME280;26845;50.190;19.178;2023-02-12T06:56:08;100406.41;;;3.53;94.35
41102;BME280;26845;50.190;19.178;2023-02-12T06:58:39;100408.86;;;3.50;94.57
41102;BME280;26845;50.190;19.178;2023-02-12T07:01:20;100408.37;;;3.47;94.16
41102;BME280;26845;50.190;19.178;2023-02-12T07:03:54;100417.01;;;3.46;94.42
41102;BME280;26845;50.190;19.178;2023-02-12T07:06:21;100417.78;;;3.40;94.42
41102;BME280;26845;50.190;19.178;2023-02-12T07:08:48;100423.44;;;3.37;94.58
41102;BME280;26845;50.190;19.178;2023-02-12T07:11:15;100430.08;;;3.39;94.58
41102;BME280;26845;50.190;19.178;2023-02-12T07:13:41;100438.38;;;3.37;94.51
41102;BME280;26845;50.190;19.178;2023-02-12T07:16:10;100436.54;;;3.36;94.48
41102;BME280;26845;50.190;19.178;2023-02-12T07:18:36;100433.70;;;3.39;94.67
41102;BME280;26845;50.190;19.178;2023-02-12T07:21:05;100434.27;;;3.42;94.55
41102;BME280;26845;50.190;19.178;2023-02-12T07:23:31;100434.58;;;3.37;94.19
41102;BME280;26845;50.190;19.178;2023-02-12T07:26:04;100432.42;;;3.36;94.37
41102;BME280;26845;50.190;19.178;2023-02-12T07:28:30;100436.56;;;3.41;94.53
41102;BME280;26845;50.190;19.178;2023-02-12T07:31:05;100438.88;;;3.43;94.58
41102;BME280;26845;50.190;19.178;2023-02-12T07:33:32;100442.59;;;3.53;94.87
41102;BME280;26845;50.190;19.178;2023-02-12T07:35:59;100452.11;;;3.62;94.81
41102;BME280;26845;50.190;19.178;2023-02-12T07:38:25;100456.98;;;3.58;94.24
41102;BME280;26845;50.190;19.178;2023-02-12T07:40:52;100460.41;;;3.48;93.28
41102;BME280;26845;50.190;19.178;2023-02-12T07:43:18;100466.48;;;3.42;93.24
41102;BME280;26845;50.190;19.178;2023-02-12T07:45:44;100477.42;;;3.36;92.93
41102;BME280;26845;50.190;19.178;2023-02-12T07:48:10;100484.31;;;3.25;92.61
41102;BME280;26845;50.190;19.178;2023-02-12T07:50:37;100483.60;;;3.20;92.70
41102;BME280;26845;50.190;19.178;2023-02-12T07:53:03;100480.30;;;3.20;92.87
41102;BME280;26845;50.190;19.178;2023-02-12T07:55:29;100486.49;;;3.27;93.27
41102;BME280;26845;50.190;19.178;2023-02-12T07:57:55;100484.98;;;3.31;92.95
41102;BME280;26845;50.190;19.178;2023-02-12T08:00:21;100485.69;;;3.30;92.86
41102;BME280;26845;50.190;19.178;2023-02-12T08:02:52;100488.58;;;3.30;92.79
41102;BME280;26845;50.190;19.178;2023-02-12T08:05:18;100497.27;;;3.34;92.68
41102;BME280;26845;50.190;19.178;2023-02-12T08:07:44;100499.91;;;3.41;92.72
41102;BME280;26845;50.190;19.178;2023-02-12T08:10:11;100502.36;;;3.37;91.92
41102;BME280;26845;50.190;19.178;2023-02-12T08:12:37;100507.77;;;3.34;91.71
41102;BME280;26845;50.190;19.178;2023-02-12T08:15:03;100509.42;;;3.29;91.56
41102;BME280;26845;50.190;19.178;2023-02-12T08:17:29;100507.80;;;3.22;90.92
41102;BME280;26845;50.190;19.178;2023-02-12T08:19:55;100507.76;;;3.14;91.17
41102;BME280;26845;50.190;19.178;2023-02-12T08:22:21;100513.68;;;3.17;91.69
41102;BME280;26845;50.190;19.178;2023-02-12T08:24:47;100514.72;;;3.23;91.71
41102;BME280;26845;50.190;19.178;2023-02-12T08:27:13;100522.66;;;3.29;91.53
41102;BME280;26845;50.190;19.178;2023-02-12T08:29:39;100520.41;;;3.36;91.79
41102;BME280;26845;50.190;19.178;2023-02-12T08:32:06;100525.81;;;3.46;91.57
41102;BME280;26845;50.190;19.178;2023-02-12T08:34:35;100528.55;;;3.52;91.42
41102;BME280;26845;50.190;19.178;2023-02-12T08:37:04;100530.55;;;3.68;90.89
41102;BME280;26845;50.190;19.178;2023-02-12T08:39:31;100534.21;;;3.80;91.03
41102;BME280;26845;50.190;19.178;2023-02-12T08:41:59;100541.73;;;3.94;91.21
41102;BME280;26845;50.190;19.178;2023-02-12T08:44:26;100537.39;;;3.98;90.80
41102;BME280;26845;50.190;19.178;2023-02-12T08:46:52;100535.42;;;3.97;90.31
41102;BME280;26845;50.190;19.178;2023-02-12T08:49:22;100538.70;;;3.94;90.01
41102;BME280;26845;50.190;19.178;2023-02-12T08:52:08;100536.89;;;4.00;90.02
41102;BME280;26845;50.190;19.178;2023-02-12T08:54:34;100538.88;;;4.10;90.05
41102;BME280;26845;50.190;19.178;2023-02-12T08:57:01;100549.59;;;4.19;89.91
41102;BME280;26845;50.190;19.178;2023-02-12T08:59:28;100543.52;;;4.30;90.16
41102;BME280;26845;50.190;19.178;2023-02-12T09:01:54;100541.11;;;4.54;89.61
41102;BME280;26845;50.190;19.178;2023-02-12T09:04:23;100546.95;;;4.73;89.55
41102;BME280;26845;50.190;19.178;2023-02-12T09:06:50;100549.99;;;4.89;89.63
41102;BME280;26845;50.190;19.178;2023-02-12T09:09:16;100551.48;;;5.06;89.38
41102;BME280;26845;50.190;19.178;2023-02-12T09:11:42;100550.87;;;5.22;89.38
41102;BME280;26845;50.190;19.178;2023-02-12T09:14:12;100551.59;;;5.32;89.14
41102;BME280;26845;50.190;19.178;2023-02-12T09:16:38;100551.17;;;5.59;88.43
41102;BME280;26845;50.190;19.178;2023-02-12T09:19:05;100554.66;;;5.67;88.55
41102;BME280;26845;50.190;19.178;2023-02-12T09:21:32;100561.36;;;5.63;87.97
41102;BME280;26845;50.190;19.178;2023-02-12T09:24:00;100562.46;;;5.53;87.42
41102;BME280;26845;50.190;19.178;2023-02-12T09:26:26;100565.67;;;5.49;87.96
41102;BME280;26845;50.190;19.178;2023-02-12T09:28:53;100561.97;;;5.46;87.44
41102;BME280;26845;50.190;19.178;2023-02-12T09:31:25;100562.04;;;5.44;87.37
41102;BME280;26845;50.190;19.178;2023-02-12T09:34:03;100559.61;;;5.44;87.45
41102;BME280;26845;50.190;19.178;2023-02-12T09:36:30;100567.19;;;5.40;86.90
41102;BME280;26845;50.190;19.178;2023-02-12T09:38:56;100568.20;;;5.43;86.77
41102;BME280;26845;50.190;19.178;2023-02-12T09:44:47;100578.59;;;6.02;86.50
41102;BME280;26845;50.190;19.178;2023-02-12T09:47:34;100573.54;;;6.51;87.02
41102;BME280;26845;50.190;19.178;2023-02-12T09:53:04;100578.27;;;7.42;85.99
41102;BME280;26845;50.190;19.178;2023-02-12T09:55:32;100579.98;;;7.87;86.39
41102;BME280;26845;50.190;19.178;2023-02-12T09:58:10;100577.02;;;8.40;86.58
41102;BME280;26845;50.190;19.178;2023-02-12T10:00:38;100582.71;;;8.90;85.52
41102;BME280;26845;50.190;19.178;2023-02-12T10:03:11;100580.03;;;9.25;83.53
41102;BME280;26845;50.190;19.178;2023-02-12T10:05:59;100591.20;;;9.33;83.27
41102;BME280;26845;50.190;19.178;2023-02-12T10:14:41;100583.90;;;10.38;83.22
41102;BME280;26845;50.190;19.178;2023-02-12T10:28:11;100597.09;;;9.56;80.59
41102;BME280;26845;50.190;19.178;2023-02-12T10:31:03;100605.77;;;9.76;80.56
41102;BME280;26845;50.190;19.178;2023-02-12T10:33:35;100605.67;;;10.05;80.91
41102;BME280;26845;50.190;19.178;2023-02-12T10:36:42;100596.73;;;10.39;80.94
41102;BME280;26845;50.190;19.178;2023-02-12T10:39:32;100597.83;;;10.65;79.21
41102;BME280;26845;50.190;19.178;2023-02-12T10:42:14;100594.80;;;10.79;78.64
41102;BME280;26845;50.190;19.178;2023-02-12T10:44:40;100602.60;;;10.64;76.98
41102;BME280;26845;50.190;19.178;2023-02-12T10:47:16;100593.02;;;10.79;78.91
41102;BME280;26845;50.190;19.178;2023-02-12T10:49:43;100597.51;;;11.04;78.23
41102;BME280;26845;50.190;19.178;2023-02-12T10:52:38;100597.98;;;11.09;77.91
41102;BME280;26845;50.190;19.178;2023-02-12T10:55:30;100601.08;;;11.06;77.38
41102;BME280;26845;50.190;19.178;2023-02-12T10:57:58;100604.73;;;10.72;76.93
41102;BME280;26845;50.190;19.178;2023-02-12T11:00:36;100600.35;;;10.58;77.72
41102;BME280;26845;50.190;19.178;2023-02-12T11:03:31;100597.91;;;10.79;77.32
41102;BME280;26845;50.190;19.178;2023-02-12T11:06:31;100594.45;;;11.03;77.37
41102;BME280;26845;50.190;19.178;2023-02-12T11:08:58;100590.84;;;11.21;75.83
41102;BME280;26845;50.190;19.178;2023-02-12T11:11:29;100598.48;;;10.91;71.14
41102;BME280;26845;50.190;19.178;2023-02-12T11:13:59;100597.21;;;10.65;74.72
41102;BME280;26845;50.190;19.178;2023-02-12T11:16:33;100596.88;;;10.89;75.43
41102;BME280;26845;50.190;19.178;2023-02-12T11:19:04;100596.48;;;11.25;75.87
41102;BME280;26845;50.190;19.178;2023-02-12T11:21:32;100593.52;;;11.54;75.34
41102;BME280;26845;50.190;19.178;2023-02-12T11:24:33;100591.75;;;11.80;75.31
41102;BME280;26845;50.190;19.178;2023-02-12T11:27:34;100593.46;;;12.13;75.00
41102;BME280;26845;50.190;19.178;2023-02-12T11:30:13;100589.41;;;12.39;74.65
41102;BME280;26845;50.190;19.178;2023-02-12T11:32:40;100590.39;;;12.68;74.69
41102;BME280;26845;50.190;19.178;2023-02-12T11:35:21;100587.02;;;12.90;73.89
41102;BME280;26845;50.190;19.178;2023-02-12T11:37:58;100589.10;;;12.94;72.39
41102;BME280;26845;50.190;19.178;2023-02-12T11:40:30;100588.66;;;13.03;72.79
41102;BME280;26845;50.190;19.178;2023-02-12T11:43:00;100584.50;;;13.13;72.71
41102;BME280;26845;50.190;19.178;2023-02-12T11:45:33;100589.33;;;13.27;72.58
41102;BME280;26845;50.190;19.178;2023-02-12T11:48:01;100589.45;;;13.35;72.47
41102;BME280;26845;50.190;19.178;2023-02-12T11:50:32;100585.95;;;13.34;70.84
41102;BME280;26845;50.190;19.178;2023-02-12T11:53:06;100595.09;;;13.36;71.84
41102;BME280;26845;50.190;19.178;2023-02-12T11:55:40;100591.63;;;13.55;72.39
41102;BME280;26845;50.190;19.178;2023-02-12T11:58:22;100588.71;;;13.74;72.23
41102;BME280;26845;50.190;19.178;2023-02-12T12:00:58;100582.94;;;13.85;71.35
41102;BME280;26845;50.190;19.178;2023-02-12T12:03:33;100586.52;;;13.90;71.29
41102;BME280;26845;50.190;19.178;2023-02-12T12:06:52;100584.52;;;13.90;69.57
41102;BME280;26845;50.190;19.178;2023-02-12T12:09:01;100588.47;;;13.68;69.16
41102;BME280;26845;50.190;19.178;2023-02-12T12:11:55;100587.31;;;13.68;69.38
41102;BME280;26845;50.190;19.178;2023-02-12T12:14:29;100588.80;;;13.44;67.76
41102;BME280;26845;50.190;19.178;2023-02-12T12:17:13;100585.48;;;13.48;69.07
41102;BME280;26845;50.190;19.178;2023-02-12T12:20:09;100575.50;;;13.64;69.12
41102;BME280;26845;50.190;19.178;2023-02-12T12:23:02;100580.59;;;13.76;67.98
41102;BME280;26845;50.190;19.178;2023-02-12T12:25:55;100585.40;;;13.35;65.58
41102;BME280;26845;50.190;19.178;2023-02-12T12:31:11;100582.98;;;12.82;67.86
41102;BME280;26845;50.190;19.178;2023-02-12T12:33:51;100583.51;;;12.70;65.68
41102;BME280;26845;50.190;19.178;2023-02-12T12:36:46;100583.13;;;12.38;65.18
41102;BME280;26845;50.190;19.178;2023-02-12T12:45:41;100585.86;;;10.33;65.70
41102;BME280;26845;50.190;19.178;2023-02-12T12:51:22;100592.67;;;9.97;57.84
41102;BME280;26845;50.190;19.178;2023-02-12T12:57:04;100602.86;;;8.38;63.56
41102;BME280;26845;50.190;19.178;2023-02-12T13:08:32;100615.50;;;8.41;64.65
41102;BME280;26845;50.190;19.178;2023-02-12T13:14:22;100631.14;;;8.39;65.27
41102;BME280;26845;50.190;19.178;2023-02-12T13:23:08;100627.47;;;7.74;64.12
41102;BME280;26845;50.190;19.178;2023-02-12T13:25:46;100628.81;;;7.37;64.83
41102;BME280;26845;50.190;19.178;2023-02-12T13:28:35;100627.09;;;7.00;64.46
41102;BME280;26845;50.190;19.178;2023-02-12T13:31:06;100628.39;;;6.64;65.69
41102;BME280;26845;50.190;19.178;2023-02-12T13:33:41;100626.54;;;6.51;65.93
41102;BME280;26845;50.190;19.178;2023-02-12T13:36:13;100626.09;;;6.45;66.35
41102;BME280;26845;50.190;19.178;2023-02-12T13:41:47;100626.36;;;6.21;66.44
41102;BME280;26845;50.190;19.178;2023-02-12T13:44:58;100625.77;;;6.36;67.25
41102;BME280;26845;50.190;19.178;2023-02-12T13:48:02;100627.09;;;6.49;66.93
41102;BME280;26845;50.190;19.178;2023-02-12T13:51:09;100620.46;;;6.46;66.91
41102;BME280;26845;50.190;19.178;2023-02-12T13:54:09;100628.96;;;6.41;67.20
41102;BME280;26845;50.190;19.178;2023-02-12T13:56:48;100631.71;;;6.35;67.11
41102;BME280;26845;50.190;19.178;2023-02-12T13:59:39;100630.56;;;6.29;67.40
41102;BME280;26845;50.190;19.178;2023-02-12T14:04:45;100638.85;;;6.29;67.85
41102;BME280;26845;50.190;19.178;2023-02-12T14:07:18;100636.46;;;6.34;68.19
41102;BME280;26845;50.190;19.178;2023-02-12T14:10:04;100636.74;;;6.35;68.02
41102;BME280;26845;50.190;19.178;2023-02-12T14:12:34;100635.48;;;6.33;68.14
41102;BME280;26845;50.190;19.178;2023-02-12T14:15:34;100643.04;;;6.28;68.04
41102;BME280;26845;50.190;19.178;2023-02-12T14:20:40;100643.14;;;6.13;68.05
41102;BME280;26845;50.190;19.178;2023-02-12T14:23:24;100641.56;;;6.12;68.26
41102;BME280;26845;50.190;19.178;2023-02-12T14:26:06;100637.64;;;6.11;68.33
41102;BME280;26845;50.190;19.178;2023-02-12T14:28:45;100635.14;;;6.16;68.39
41102;BME280;26845;50.190;19.178;2023-02-12T14:31:30;100634.12;;;6.28;68.59
41102;BME280;26845;50.190;19.178;2023-02-12T14:36:45;100638.30;;;6.59;68.88
41102;BME280;26845;50.190;19.178;2023-02-12T14:41:49;100635.95;;;6.75;68.59
41102;BME280;26845;50.190;19.178;2023-02-12T14:44:37;100637.27;;;6.80;68.65
41102;BME280;26845;50.190;19.178;2023-02-12T14:47:10;100640.46;;;6.86;68.53
41102;BME280;26845;50.190;19.178;2023-02-12T14:49:43;100637.88;;;6.87;68.44
41102;BME280;26845;50.190;19.178;2023-02-12T14:54:56;100633.94;;;6.85;68.54
41102;BME280;26845;50.190;19.178;2023-02-12T15:02:31;100632.94;;;6.85;68.61
41102;BME280;26845;50.190;19.178;2023-02-12T15:05:04;100633.13;;;6.61;67.84